Time;durP1;ratioP1;P1;durP2;ratioP2;P2;SDS_P1;SDS_P2;PMS_P1;PMS_P2;Temp;Humidity;BMP_temperature;BMP_pressure;BME280_temperature;BME280_humidity;BME280_pressure;Samples;Min_cycle;Max_cycle;Signal;HPM_P1;HPM_P2
2023/09/06 00:02:27;;;;;;;4.33;3.67;;;15.70;28.80;;;;;;5016646;28;20518;-54
2023/09/06 00:04:54;;;;;;;3.60;3.30;;;15.60;27.00;;;;;;5021094;28;20495;-55
2023/09/06 00:07:22;;;;;;;5.20;3.57;;;15.60;26.00;;;;;;5011187;28;20464;-55
2023/09/06 00:09:50;;;;;;;3.67;3.37;;;15.60;26.20;;;;;;5011644;28;20468;-54
2023/09/06 00:12:17;;;;;;;5.03;2.90;;;15.50;25.70;;;;;;5005437;28;20559;-53
2023/09/06 00:14:43;;;;;;;4.03;3.60;;;15.50;24.80;;;;;;5009296;28;21202;-54
2023/09/06 00:17:10;;;;;;;4.73;4.30;;;15.40;22.80;;;;;;5012272;28;20555;-53
2023/09/06 00:19:36;;;;;;;3.43;3.13;;;15.40;95.90;;;;;;5011620;28;20506;-54
2023/09/06 00:22:03;;;;;;;4.93;3.80;;;15.40;99.90;;;;;;5012738;28;20479;-55
2023/09/06 00:24:31;;;;;;;5.87;3.67;;;15.30;99.90;;;;;;5012782;28;21013;-54
2023/09/06 00:27:03;;;;;;;5.00;3.60;;;15.40;99.90;;;;;;5014756;28;20467;-54
2023/09/06 00:29:30;;;;;;;10.50;3.50;;;15.30;99.90;;;;;;5010444;28;20499;-54
2023/09/06 00:31:58;;;;;;;4.57;3.60;;;15.30;96.70;;;;;;5012327;28;20480;-53
2023/09/06 00:34:25;;;;;;;5.30;3.50;;;15.30;89.00;;;;;;5019391;28;20942;-54
2023/09/06 00:36:54;;;;;;;4.60;3.37;;;15.20;99.90;;;;;;5015313;28;20517;-54
2023/09/06 00:39:21;;;;;;;4.97;3.97;;;15.30;99.90;;;;;;5029672;28;20459;-53
2023/09/06 00:41:47;;;;;;;3.37;3.13;;;15.10;99.90;;;;;;5031560;28;20465;-54
2023/09/06 00:44:15;;;;;;;6.77;3.90;;;15.10;99.90;;;;;;5016054;28;20495;-53
2023/09/06 00:46:42;;;;;;;4.00;3.60;;;15.10;99.90;;;;;;5012043;28;20484;-54
2023/09/06 00:49:08;;;;;;;3.77;3.47;;;15.10;99.90;;;;;;5017819;28;20546;-54
2023/09/06 00:51:35;;;;;;;3.93;3.47;;;15.10;99.90;;;;;;5020951;28;20479;-54
2023/09/06 00:54:02;;;;;;;3.57;3.23;;;15.10;99.90;;;;;;5032361;28;20501;-54
2023/09/06 00:56:29;;;;;;;8.20;3.80;;;15.10;99.90;;;;;;5019835;28;20461;-53
2023/09/06 00:58:56;;;;;;;4.77;3.80;;;15.10;99.90;;;;;;5007092;28;20526;-55
2023/09/06 01:01:24;;;;;;;6.00;3.50;;;15.00;99.90;;;;;;5013912;28;20555;-53
2023/09/06 01:03:50;;;;;;;5.73;3.83;;;15.00;99.90;;;;;;5010587;28;21211;-53
2023/09/06 01:06:22;;;;;;;3.60;3.20;;;15.00;99.90;;;;;;5007118;28;20470;-53
2023/09/06 01:08:55;;;;;;;7.23;3.77;;;15.00;99.90;;;;;;5011836;28;20550;-53
2023/09/06 01:11:23;;;;;;;4.10;3.70;;;14.90;99.90;;;;;;5017455;28;20476;-54
2023/09/06 01:13:51;;;;;;;6.67;3.13;;;14.90;99.90;;;;;;5012684;28;20897;-53
2023/09/06 01:16:23;;;;;;;4.40;4.00;;;14.90;99.90;;;;;;5006020;28;20549;-53
2023/09/06 01:18:51;;;;;;;5.33;3.20;;;14.90;99.90;;;;;;5009049;28;20518;-54
2023/09/06 01:21:20;;;;;;;6.20;3.30;;;14.90;99.90;;;;;;5007993;28;21017;-54
2023/09/06 01:23:51;;;;;;;4.37;3.97;;;14.90;99.90;;;;;;5010250;28;20479;-54
2023/09/06 01:26:18;;;;;;;8.70;3.73;;;14.80;99.90;;;;;;5013189;28;20458;-53
2023/09/06 01:28:45;;;;;;;4.23;3.50;;;14.80;99.90;;;;;;5011520;28;21167;-53
2023/09/06 01:31:12;;;;;;;5.13;4.67;;;14.80;99.90;;;;;;5007034;28;20492;-53
2023/09/06 01:33:39;;;;;;;5.67;3.20;;;14.70;99.90;;;;;;5010524;28;20536;-54
2023/09/06 01:36:06;;;;;;;3.63;3.00;;;14.70;99.90;;;;;;5005543;28;20971;-53
2023/09/06 01:38:33;;;;;;;3.90;3.60;;;14.70;99.90;;;;;;5010118;28;20471;-54
2023/09/06 01:41:01;;;;;;;3.97;3.37;;;14.70;99.90;;;;;;5009891;28;20498;-54
2023/09/06 01:43:28;;;;;;;3.83;3.53;;;14.70;99.90;;;;;;5002793;28;20522;-54
2023/09/06 01:45:55;;;;;;;3.90;3.33;;;14.70;99.90;;;;;;5007116;28;20962;-53
2023/09/06 01:48:22;;;;;;;3.50;3.30;;;14.60;99.90;;;;;;5008539;28;20957;-53
2023/09/06 01:50:49;;;;;;;3.97;3.67;;;14.70;99.90;;;;;;5009163;28;20546;-53
2023/09/06 01:53:16;;;;;;;7.17;3.23;;;14.70;99.90;;;;;;5010981;28;20506;-53
2023/09/06 01:55:43;;;;;;;6.30;3.70;;;14.70;99.90;;;;;;5010760;28;20548;-54
2023/09/06 01:58:12;;;;;;;4.27;3.30;;;14.70;99.90;;;;;;5010459;28;20973;-53
2023/09/06 02:00:38;;;;;;;4.33;3.67;;;14.70;99.90;;;;;;5009935;28;21041;-55
2023/09/06 02:03:07;;;;;;;5.07;3.37;;;14.70;99.90;;;;;;5018342;28;20517;-54
2023/09/06 02:05:33;;;;;;;4.77;2.97;;;14.70;99.90;;;;;;5009203;28;20526;-54
2023/09/06 02:08:01;;;;;;;5.27;3.40;;;14.70;99.90;;;;;;5022254;28;20490;-53
2023/09/06 02:10:28;;;;;;;2.87;2.67;;;14.60;99.90;;;;;;5011560;28;20885;-53
2023/09/06 02:12:54;;;;;;;5.43;3.87;;;14.60;99.90;;;;;;5024865;28;20483;-54
2023/09/06 02:15:23;;;;;;;3.83;3.40;;;14.60;99.90;;;;;;5015956;28;20455;-53
2023/09/06 02:17:50;;;;;;;3.93;3.50;;;14.60;99.90;;;;;;5017237;28;20456;-53
2023/09/06 02:20:19;;;;;;;4.13;3.73;;;14.60;99.90;;;;;;5009603;28;20558;-54
2023/09/06 02:22:47;;;;;;;5.23;3.77;;;14.60;99.90;;;;;;5010198;28;20507;-55
2023/09/06 02:25:15;;;;;;;2.80;2.60;;;14.60;99.90;;;;;;5011180;28;20926;-54
2023/09/06 02:27:42;;;;;;;3.20;3.00;;;14.60;99.90;;;;;;5011554;28;20958;-54
2023/09/06 02:30:09;;;;;;;5.40;3.53;;;14.60;99.90;;;;;;5022538;28;20479;-54
2023/09/06 02:32:37;;;;;;;4.50;3.50;;;14.50;99.90;;;;;;5018607;28;20510;-54
2023/09/06 02:35:06;;;;;;;4.07;3.53;;;14.50;99.90;;;;;;5011018;28;20987;-53
2023/09/06 02:37:32;;;;;;;6.90;3.87;;;14.50;99.90;;;;;;5010158;28;20471;-54
2023/09/06 02:39:59;;;;;;;3.90;3.50;;;14.40;99.90;;;;;;5006285;28;20498;-54
2023/09/06 02:42:26;;;;;;;3.97;3.53;;;14.50;99.90;;;;;;5010506;28;20480;-50
2023/09/06 02:44:53;;;;;;;4.47;4.10;;;14.50;99.90;;;;;;5016628;28;20550;-50
2023/09/06 02:47:28;;;;;;;3.90;3.60;;;14.50;99.90;;;;;;5017928;28;20479;-50
2023/09/06 02:49:56;;;;;;;3.63;3.30;;;14.40;99.90;;;;;;5017380;28;20470;-50
2023/09/06 02:52:29;;;;;;;7.40;3.27;;;14.40;99.90;;;;;;5017066;28;20486;-50
2023/09/06 02:54:57;;;;;;;5.93;3.40;;;14.40;99.90;;;;;;5007696;28;20464;-51
2023/09/06 02:57:25;;;;;;;4.70;3.30;;;14.40;99.90;;;;;;5010558;28;20458;-51
2023/09/06 02:59:51;;;;;;;3.80;3.30;;;14.40;99.90;;;;;;5011565;28;20894;-50
2023/09/06 03:02:19;;;;;;;3.60;3.20;;;14.30;99.90;;;;;;5012499;28;20474;-51
2023/09/06 03:04:45;;;;;;;5.87;3.47;;;14.30;99.90;;;;;;5010946;28;20539;-49
2023/09/06 03:07:15;;;;;;;3.40;3.10;;;14.30;99.90;;;;;;5008837;28;20494;-50
2023/09/06 03:09:44;;;;;;;4.43;3.70;;;14.30;99.90;;;;;;5002773;28;20937;-51
2023/09/06 03:12:12;;;;;;;3.77;3.27;;;14.30;99.90;;;;;;5009175;28;20483;-51
2023/09/06 03:14:41;;;;;;;4.07;3.37;;;14.30;99.90;;;;;;5017015;28;20454;-51
2023/09/06 03:17:09;;;;;;;5.30;3.30;;;14.20;99.90;;;;;;5021557;28;20456;-50
2023/09/06 03:19:38;;;;;;;6.00;3.53;;;14.20;99.90;;;;;;5014516;28;20467;-51
2023/09/06 03:22:07;;;;;;;5.00;4.20;;;14.20;99.90;;;;;;5006764;28;20474;-51
2023/09/06 03:24:34;;;;;;;4.17;3.83;;;14.20;99.90;;;;;;5012084;28;20550;-50
2023/09/06 03:27:07;;;;;;;4.00;3.70;;;14.10;99.90;;;;;;5015236;28;20533;-51
2023/09/06 03:29:36;;;;;;;7.00;3.60;;;14.10;99.90;;;;;;5012300;28;20460;-51
2023/09/06 03:32:03;;;;;;;3.73;3.40;;;14.10;99.90;;;;;;5016577;28;20881;-51
2023/09/06 03:34:30;;;;;;;6.97;3.40;;;14.10;99.90;;;;;;5020438;28;20502;-51
2023/09/06 03:36:57;;;;;;;4.70;3.80;;;14.10;99.90;;;;;;5018456;28;20476;-51
2023/09/06 03:39:28;;;;;;;4.23;3.33;;;14.00;99.90;;;;;;5018054;28;20467;-50
2023/09/06 03:41:57;;;;;;;3.73;3.37;;;14.00;99.90;;;;;;5020364;28;20954;-50
2023/09/06 03:44:24;;;;;;;3.60;3.30;;;14.00;99.90;;;;;;5029968;28;20479;-51
2023/09/06 03:46:51;;;;;;;3.43;3.13;;;13.90;99.90;;;;;;5020804;28;20554;-51
2023/09/06 03:49:18;;;;;;;6.13;3.93;;;13.90;99.90;;;;;;5020212;28;20510;-51
2023/09/06 03:51:45;;;;;;;3.60;3.17;;;13.90;99.90;;;;;;5014904;28;20463;-51
2023/09/06 03:54:12;;;;;;;3.63;3.33;;;13.90;99.90;;;;;;5022713;28;20486;-51
2023/09/06 03:56:39;;;;;;;4.47;4.10;;;13.90;99.90;;;;;;5027701;28;20487;-50
2023/09/06 03:59:08;;;;;;;4.50;4.10;;;13.90;99.90;;;;;;5023052;28;20870;-50
2023/09/06 04:01:35;;;;;;;3.60;3.30;;;13.90;99.90;;;;;;5024935;28;20483;-50
2023/09/06 04:04:01;;;;;;;5.37;3.70;;;13.90;99.90;;;;;;5018568;28;20502;-51
2023/09/06 04:06:29;;;;;;;5.30;3.97;;;13.90;99.90;;;;;;5012194;28;20968;-50
2023/09/06 04:08:56;;;;;;;4.50;4.10;;;13.80;99.90;;;;;;5012109;28;20460;-50
2023/09/06 04:11:22;;;;;;;7.57;4.27;;;13.90;99.90;;;;;;5021297;28;20933;-51
2023/09/06 04:13:51;;;;;;;4.40;3.90;;;13.90;99.90;;;;;;5012241;28;20495;-50
2023/09/06 04:16:19;;;;;;;3.97;3.67;;;13.80;99.90;;;;;;5014229;28;20454;-51
2023/09/06 04:18:45;;;;;;;6.57;4.20;;;13.90;99.90;;;;;;5016823;28;20454;-51
2023/09/06 04:21:12;;;;;;;3.87;3.57;;;13.80;99.90;;;;;;5012134;28;20482;-51
2023/09/06 04:23:39;;;;;;;4.70;4.00;;;13.80;99.90;;;;;;5029819;28;20538;-50
2023/09/06 04:26:05;;;;;;;4.37;3.47;;;13.80;99.90;;;;;;5011671;28;20456;-50
2023/09/06 04:28:32;;;;;;;4.00;3.57;;;13.80;99.90;;;;;;5013786;28;20468;-50
2023/09/06 04:31:00;;;;;;;5.00;4.20;;;13.80;99.90;;;;;;5013182;28;20456;-50
2023/09/06 04:33:28;;;;;;;7.20;3.87;;;13.80;99.90;;;;;;5019243;28;20855;-50
2023/09/06 04:35:55;;;;;;;4.13;3.73;;;13.80;99.90;;;;;;5011133;28;20506;-50
2023/09/06 04:38:24;;;;;;;7.30;4.07;;;13.70;99.90;;;;;;5013498;28;20456;-51
2023/09/06 04:40:51;;;;;;;4.03;3.53;;;13.80;99.90;;;;;;5011122;28;20460;-51
2023/09/06 04:43:19;;;;;;;5.97;3.73;;;13.80;99.90;;;;;;5010146;28;20522;-49
2023/09/06 04:45:47;;;;;;;5.83;4.73;;;13.80;99.90;;;;;;5010617;28;20521;-50
2023/09/06 04:48:16;;;;;;;4.90;3.93;;;13.70;99.90;;;;;;5017224;28;20562;-50
2023/09/06 04:50:45;;;;;;;5.40;4.60;;;13.80;99.90;;;;;;5011779;28;20549;-51
2023/09/06 04:53:15;;;;;;;8.73;3.97;;;13.70;99.90;;;;;;5011268;28;20494;-50
2023/09/06 04:55:41;;;;;;;4.17;3.87;;;13.70;99.90;;;;;;5007199;28;21040;-50
2023/09/06 04:58:09;;;;;;;5.17;4.13;;;13.70;99.90;;;;;;5012867;28;20532;-50
2023/09/06 05:00:38;;;;;;;6.83;4.17;;;13.70;99.90;;;;;;5012524;28;20498;-50
2023/09/06 05:03:08;;;;;;;4.67;4.27;;;13.80;99.90;;;;;;5010317;28;20486;-50
2023/09/06 05:05:35;;;;;;;5.40;4.70;;;13.80;99.90;;;;;;5010418;28;20838;-50
2023/09/06 05:08:03;;;;;;;4.73;4.33;;;13.80;99.90;;;;;;5011600;28;20494;-51
2023/09/06 05:10:30;;;;;;;5.60;3.40;;;13.80;99.90;;;;;;5007812;28;21017;-50
2023/09/06 05:12:56;;;;;;;4.97;3.93;;;13.80;99.90;;;;;;5012753;28;20541;-51
2023/09/06 05:15:23;;;;;;;6.20;3.87;;;13.80;99.90;;;;;;5013648;28;20480;-53
2023/09/06 05:17:49;;;;;;;3.67;3.37;;;13.90;99.90;;;;;;5015320;28;20478;-53
2023/09/06 05:20:27;;;;;;;4.93;3.53;;;13.90;99.90;;;;;;5014454;28;20498;-55
2023/09/06 05:22:55;;;;;;;4.00;3.60;;;14.00;99.90;;;;;;5016810;28;20511;-53
2023/09/06 05:25:23;;;;;;;4.87;4.40;;;14.00;99.90;;;;;;5012852;28;20975;-54
2023/09/06 05:27:50;;;;;;;5.10;4.50;;;14.00;99.90;;;;;;5012535;28;20476;-54
2023/09/06 05:30:17;;;;;;;4.73;4.30;;;14.10;99.90;;;;;;5012908;28;20475;-53
2023/09/06 05:32:43;;;;;;;13.33;4.33;;;14.10;99.90;;;;;;5010261;28;20582;-53
2023/09/06 05:35:10;;;;;;;4.83;4.30;;;14.20;99.90;;;;;;5007190;28;21028;-53
2023/09/06 05:37:38;;;;;;;7.73;4.73;;;14.30;99.90;;;;;;5011346;28;20480;-54
2023/09/06 05:40:06;;;;;;;4.93;4.43;;;14.30;99.90;;;;;;5011438;28;20546;-54
2023/09/06 05:42:34;;;;;;;9.53;4.47;;;14.40;99.90;;;;;;5007105;28;20555;-55
2023/09/06 05:45:00;;;;;;;5.30;4.80;;;14.50;99.90;;;;;;5017763;23;20658;-52
2023/09/06 05:47:27;;;;;;;4.80;3.87;;;14.50;99.90;;;;;;4990797;28;20472;-51
2023/09/06 05:49:55;;;;;;;5.00;4.20;;;14.60;99.90;;;;;;4997764;28;20570;-52
2023/09/06 05:52:23;;;;;;;4.97;4.50;;;14.60;99.90;;;;;;4993515;28;20483;-53
2023/09/06 05:54:49;;;;;;;5.00;3.83;;;14.70;99.90;;;;;;4991392;28;20587;-51
2023/09/06 05:57:16;;;;;;;8.00;4.40;;;14.80;99.90;;;;;;4999820;28;20480;-52
2023/09/06 05:59:44;;;;;;;6.63;3.70;;;14.80;99.90;;;;;;4990083;28;20543;-51
2023/09/06 06:02:10;;;;;;;4.47;4.07;;;14.90;99.90;;;;;;4992335;28;20920;-51
2023/09/06 06:04:37;;;;;;;5.57;5.00;;;15.00;99.90;;;;;;4994794;28;20515;-51
2023/09/06 06:07:03;;;;;;;5.00;4.17;;;15.10;99.90;;;;;;4990690;28;20649;-51
2023/09/06 06:09:30;;;;;;;5.40;4.83;;;15.20;99.90;;;;;;4989663;28;20495;-51
2023/09/06 06:11:56;;;;;;;5.40;3.80;;;15.30;99.90;;;;;;4974724;28;20560;-51
2023/09/06 06:14:27;;;;;;;4.40;4.00;;;15.40;99.90;;;;;;4979429;28;20575;-51
2023/09/06 06:16:57;;;;;;;12.13;4.77;;;15.50;99.90;;;;;;4987937;28;20989;-50
2023/09/06 06:19:23;;;;;;;8.50;6.00;;;15.70;99.90;;;;;;4984687;28;20457;-50
2023/09/06 06:21:50;;;;;;;8.20;5.73;;;15.80;99.90;;;;;;4991856;28;20445;-52
2023/09/06 06:24:17;;;;;;;9.43;6.43;;;15.90;99.90;;;;;;4991469;28;20469;-52
2023/09/06 06:26:44;;;;;;;13.00;6.80;;;16.10;99.90;;;;;;4989192;28;20539;-52
2023/09/06 06:29:10;;;;;;;7.10;5.80;;;16.40;99.90;;;;;;4991699;28;20491;-51
2023/09/06 06:31:37;;;;;;;11.93;6.10;;;16.50;28.40;;;;;;4985330;28;20518;-51
2023/09/06 06:34:05;;;;;;;7.10;5.90;;;16.70;35.80;;;;;;4989464;28;20496;-51
2023/09/06 06:36:32;;;;;;;8.73;5.33;;;16.70;41.20;;;;;;4987375;28;20847;-51
2023/09/06 06:38:58;;;;;;;8.63;5.30;;;16.80;44.00;;;;;;4990675;28;20460;-51
2023/09/06 06:41:25;;;;;;;9.73;6.30;;;16.90;48.40;;;;;;4993671;28;20519;-51
2023/09/06 06:43:53;;;;;;;7.27;5.87;;;17.00;54.30;;;;;;4990174;28;20476;-52
2023/09/06 06:46:27;;;;;;;10.83;5.67;;;17.10;66.50;;;;;;4999750;28;20540;-51
2023/09/06 06:48:54;;;;;;;9.80;5.60;;;17.30;67.00;;;;;;4990097;28;20546;-51
2023/09/06 06:51:22;;;;;;;6.93;5.70;;;17.40;74.30;;;;;;4993520;28;20461;-51
2023/09/06 06:53:49;;;;;;;11.43;6.10;;;17.50;78.90;;;;;;4994090;28;20527;-50
2023/09/06 06:56:21;;;;;;;7.33;5.40;;;17.60;95.90;;;;;;4990030;28;20555;-52
2023/09/06 06:58:47;;;;;;;8.50;6.17;;;17.70;94.90;;;;;;4997135;28;20477;-51
2023/09/06 07:01:14;;;;;;;7.83;5.73;;;17.90;92.20;;;;;;4993126;28;20563;-51
2023/09/06 07:03:40;;;;;;;12.30;6.03;;;17.90;95.30;;;;;;4986256;28;21183;-51
2023/09/06 07:06:07;;;;;;;5.93;5.40;;;18.00;98.30;;;;;;4995510;28;20463;-52
2023/09/06 07:08:36;;;;;;;8.20;6.37;;;18.10;99.90;;;;;;5010913;28;20452;-53
2023/09/06 07:11:04;;;;;;;14.73;5.53;;;18.40;99.90;;;;;;4996645;28;21143;-52
2023/09/06 07:13:31;;;;;;;7.80;5.60;;;18.60;99.90;;;;;;4988710;28;20477;-51
2023/09/06 07:15:58;;;;;;;10.17;5.90;;;18.70;99.90;;;;;;4993607;28;20562;-51
2023/09/06 07:18:25;;;;;;;7.07;5.40;;;18.70;99.90;;;;;;4995518;28;20527;-52
2023/09/06 07:20:51;;;;;;;11.27;5.77;;;18.80;99.90;;;;;;4994036;28;20547;-52
2023/09/06 07:23:18;;;;;;;6.17;5.60;;;18.90;99.90;;;;;;5000926;28;21897;-52
2023/09/06 07:25:47;;;;;;;7.40;5.80;;;19.10;99.90;;;;;;5003034;28;20479;-52
2023/09/06 07:28:14;;;;;;;7.67;4.80;;;19.20;99.90;;;;;;5005419;28;20466;-52
2023/09/06 07:30:42;;;;;;;12.07;5.67;;;19.30;99.90;;;;;;4994335;28;20540;-52
2023/09/06 07:33:09;;;;;;;7.37;5.10;;;19.30;99.90;;;;;;4998896;28;20507;-52
2023/09/06 07:35:35;;;;;;;19.37;6.17;;;19.40;99.90;;;;;;5000223;28;20492;-51
2023/09/06 07:38:02;;;;;;;6.53;5.73;;;19.60;99.90;;;;;;4999183;28;20495;-52
2023/09/06 07:40:28;;;;;;;6.80;5.73;;;19.80;99.90;;;;;;4997915;28;20485;-51
2023/09/06 07:42:56;;;;;;;5.83;5.23;;;19.90;99.90;;;;;;4999689;28;20502;-52
2023/09/06 07:45:23;;;;;;;10.40;5.13;;;20.10;99.90;;;;;;4997623;28;20589;-53
2023/09/06 07:47:51;;;;;;;9.30;5.20;;;20.30;99.90;;;;;;4993715;28;20587;-51
2023/09/06 07:50:17;;;;;;;11.13;4.73;;;20.40;99.90;;;;;;4995518;28;20525;-52
2023/09/06 07:52:44;;;;;;;7.77;5.30;;;20.60;99.90;;;;;;5006146;28;20455;-52
2023/09/06 07:55:12;;;;;;;5.97;5.03;;;20.80;99.90;;;;;;5009395;28;20520;-52
2023/09/06 07:57:38;;;;;;;5.90;5.40;;;20.90;99.90;;;;;;4993623;28;20457;-53
2023/09/06 08:00:08;;;;;;;7.80;4.83;;;21.00;99.90;;;;;;4994039;28;20550;-53
2023/09/06 08:02:35;;;;;;;8.50;4.70;;;21.30;99.90;;;;;;4988568;28;20547;-52
2023/09/06 08:05:02;;;;;;;4.90;4.40;;;21.70;24.40;;;;;;4994681;28;20535;-51
2023/09/06 08:07:29;;;;;;;6.40;5.10;;;21.90;42.10;;;;;;5002278;28;20836;-53
2023/09/06 08:09:55;;;;;;;15.73;4.97;;;22.20;55.20;;;;;;4996270;28;20538;-53
2023/09/06 08:12:23;;;;;;;16.17;4.90;;;22.40;59.50;;;;;;5002886;28;20463;-51
2023/09/06 08:14:49;;;;;;;5.90;5.40;;;22.60;70.50;;;;;;4988424;28;20972;-53
2023/09/06 08:17:17;;;;;;;5.83;5.00;;;22.60;84.00;;;;;;5001352;28;20531;-51
2023/09/06 08:19:43;;;;;;;10.90;4.70;;;22.60;99.90;;;;;;4991448;28;20908;-52
2023/09/06 08:22:10;;;;;;;9.30;5.50;;;22.70;99.90;;;;;;4997824;28;20555;-52
2023/09/06 08:24:37;;;;;;;8.20;4.67;;;22.80;99.90;;;;;;4992941;28;20484;-52
2023/09/06 08:27:05;;;;;;;8.30;5.00;;;22.90;99.90;;;;;;4993978;28;21156;-52
2023/09/06 08:29:31;;;;;;;4.90;4.40;;;22.90;99.90;;;;;;4997280;28;20492;-52
2023/09/06 08:31:58;;;;;;;7.50;4.20;;;23.00;99.90;;;;;;4995150;28;20547;-53
2023/09/06 08:34:25;;;;;;;14.50;4.83;;;23.10;99.90;;;;;;4990547;28;20524;-52
2023/09/06 08:36:52;;;;;;;10.93;4.90;;;23.30;99.90;;;;;;4999398;28;20467;-54
2023/09/06 08:39:19;;;;;;;8.97;5.33;;;23.40;99.90;;;;;;4991878;28;20548;-52
2023/09/06 08:41:49;;;;;;;8.57;5.57;;;23.50;99.90;;;;;;5006320;28;20514;-53
2023/09/06 08:44:20;;;;;;;8.20;5.30;;;23.60;99.90;;;;;;4989806;28;20563;-52
2023/09/06 08:46:49;;;;;;;8.93;5.47;;;23.70;99.90;;;;;;4997997;28;20506;-52
2023/09/06 08:49:17;;;;;;;14.03;5.53;;;23.90;99.90;;;;;;5000262;28;20897;-53
2023/09/06 08:51:46;;;;;;;8.60;4.90;;;24.00;99.90;;;;;;4994595;28;20902;-53
2023/09/06 08:54:15;;;;;;;10.90;5.70;;;24.10;99.90;;;;;;5001205;28;20487;-52
2023/09/06 08:56:44;;;;;;;11.97;5.00;;;24.10;99.90;;;;;;4998092;28;20472;-51
2023/09/06 08:59:11;;;;;;;5.03;4.60;;;24.60;99.90;;;;;;4994938;28;20700;-52
2023/09/06 09:01:38;;;;;;;11.70;6.03;;;24.90;99.90;;;;;;4991567;28;20471;-51
2023/09/06 09:04:05;;;;;;;6.00;4.57;;;24.90;99.90;;;;;;4975754;28;20476;-52
2023/09/06 09:06:32;;;;;;;5.10;4.40;;;25.10;99.90;;;;;;4994609;28;20547;-51
2023/09/06 09:09:16;;;;;;;6.93;5.10;;;25.70;99.90;;;;;;4991468;28;20555;-51
2023/09/06 09:11:50;;;;;;;8.87;5.23;;;25.70;99.90;;;;;;4993986;28;20456;-53
2023/09/06 09:14:21;;;;;;;5.20;4.80;;;25.60;99.90;;;;;;4992087;28;20494;-52
2023/09/06 09:16:54;;;;;;;11.13;4.83;;;25.40;99.90;;;;;;5003468;28;20466;-52
2023/09/06 09:19:22;;;;;;;10.60;5.40;;;25.40;99.90;;;;;;4989439;28;20461;-52
2023/09/06 09:21:50;;;;;;;11.23;4.80;;;25.30;99.90;;;;;;5000578;28;20464;-52
2023/09/06 09:24:24;;;;;;;5.57;4.53;;;25.50;99.90;;;;;;5008725;28;20477;-52
2023/09/06 09:26:51;;;;;;;5.83;4.90;;;25.60;99.90;;;;;;4998597;28;20534;-52
2023/09/06 09:29:17;;;;;;;12.10;4.10;;;25.70;99.90;;;;;;5002230;28;20595;-52
2023/09/06 09:31:44;;;;;;;14.97;4.47;;;25.70;99.90;;;;;;5002684;28;20530;-52
2023/09/06 09:34:12;;;;;;;10.40;5.27;;;25.90;99.90;;;;;;5001254;28;20480;-51
2023/09/06 09:36:39;;;;;;;9.77;4.40;;;25.90;1.40;;;;;;4993782;28;20465;-52
2023/09/06 09:39:07;;;;;;;10.53;4.40;;;25.90;99.90;;;;;;5000676;28;20480;-52
2023/09/06 09:41:36;;;;;;;6.37;4.60;;;26.00;99.90;;;;;;4998365;28;20488;-52
2023/09/06 09:44:13;;;;;;;5.97;4.20;;;26.20;99.90;;;;;;4998469;28;20495;-53
2023/09/06 09:46:42;;;;;;;12.83;4.70;;;26.40;99.90;;;;;;4992516;28;20460;-52
2023/09/06 09:49:10;;;;;;;5.40;4.57;;;26.30;99.90;;;;;;4995437;28;20546;-52
2023/09/06 09:51:37;;;;;;;3.73;3.43;;;26.50;99.90;;;;;;4990912;28;20506;-52
2023/09/06 09:54:05;;;;;;;5.13;4.13;;;26.50;99.90;;;;;;4989794;28;20623;-51
2023/09/06 09:56:36;;;;;;;4.50;4.10;;;26.60;99.90;;;;;;4996620;28;20882;-52
2023/09/06 09:59:04;;;;;;;5.20;4.10;;;26.80;99.90;;;;;;4994970;28;20507;-53
2023/09/06 10:01:31;;;;;;;6.17;4.30;;;26.90;99.90;;;;;;4996779;28;20471;-50
2023/09/06 10:03:58;;;;;;;7.50;3.90;;;26.90;99.90;;;;;;4995612;28;20494;-51
2023/09/06 10:06:27;;;;;;;4.97;4.50;;;26.90;99.90;;;;;;4990392;28;20496;-52
2023/09/06 10:08:56;;;;;;;9.83;4.50;;;27.60;99.90;;;;;;4992289;28;20564;-51
2023/09/06 10:11:23;;;;;;;4.60;4.20;;;28.10;99.90;;;;;;5000796;28;20902;-52
2023/09/06 10:13:51;;;;;;;6.20;3.87;;;28.30;99.90;;;;;;4994321;28;21077;-51
2023/09/06 10:16:18;;;;;;;4.40;4.10;;;28.60;99.90;;;;;;4987495;28;21089;-54
2023/09/06 10:18:45;;;;;;;13.83;4.60;;;28.90;99.90;;;;;;4989626;28;20555;-52
2023/09/06 10:21:14;;;;;;;3.90;3.57;;;29.60;99.90;;;;;;4991471;28;20558;-52
2023/09/06 10:23:41;;;;;;;4.53;4.13;;;29.40;99.90;;;;;;4997288;28;20582;-52
2023/09/06 10:26:08;;;;;;;4.50;4.10;;;30.70;99.90;;;;;;4996450;28;20551;-52
2023/09/06 10:28:35;;;;;;;5.20;4.70;;;31.80;99.90;;;;;;4998205;28;20563;-52
2023/09/06 10:31:08;;;;;;;3.57;3.27;;;31.60;99.90;;;;;;4999025;28;20918;-52
2023/09/06 10:33:55;;;;;;;4.87;4.20;;;31.40;99.90;;;;;;5000054;28;20461;-52
2023/09/06 10:36:22;;;;;;;7.43;3.80;;;29.80;99.90;;;;;;4988784;28;20480;-51
2023/09/06 10:39:14;;;;;;;5.50;4.10;;;29.70;99.90;;;;;;4994709;28;20460;-52
2023/09/06 10:42:27;;;;;;;4.20;3.80;;;29.60;99.90;;;;;;5010012;28;20494;-52
2023/09/06 10:45:09;;;;;;;7.77;4.10;;;30.90;99.90;;;;;;5002383;28;20495;-52
2023/09/06 10:47:37;;;;;;;8.77;4.00;;;30.10;99.90;;;;;;4991930;28;20452;-51
2023/09/06 10:50:12;;;;;;;5.60;3.53;;;30.00;99.90;;;;;;4995920;28;20511;-52
2023/09/06 10:52:41;;;;;;;7.13;3.07;;;31.00;99.90;;;;;;5002477;28;21029;-53
2023/09/06 10:55:13;;;;;;;8.23;3.57;;;31.70;99.90;;;;;;5003905;28;20578;-51
2023/09/06 10:57:54;;;;;;;4.57;4.10;;;33.10;99.90;;;;;;5001259;28;20460;-52
2023/09/06 11:00:25;;;;;;;7.73;3.10;;;32.30;99.90;;;;;;4988431;28;20476;-51
2023/09/06 11:03:19;;;;;;;3.80;3.33;;;31.00;99.90;;;;;;5006899;28;20527;-52
2023/09/06 11:05:51;;;;;;;6.57;3.90;;;31.50;99.90;;;;;;4989736;28;20479;-53
2023/09/06 11:08:24;;;;;;;3.00;2.80;;;31.10;99.90;;;;;;4995409;28;20491;-52
2023/09/06 11:10:53;;;;;;;6.50;3.13;;;30.00;99.90;;;;;;4998710;28;20461;-53
2023/09/06 11:13:20;;;;;;;3.33;3.10;;;31.20;99.90;;;;;;4987663;28;20620;-53
2023/09/06 11:15:50;;;;;;;4.63;3.13;;;30.70;99.90;;;;;;4996659;28;20484;-53
2023/09/06 11:18:18;;;;;;;3.30;2.80;;;30.40;99.90;;;;;;5001226;28;20467;-53
2023/09/06 11:20:48;;;;;;;6.40;3.27;;;30.00;99.90;;;;;;4993506;28;20551;-53
2023/09/06 11:23:15;;;;;;;6.83;3.17;;;29.40;99.90;;;;;;4987696;28;20470;-51
2023/09/06 11:25:41;;;;;;;3.10;2.80;;;29.80;99.90;;;;;;4994971;28;20862;-53
2023/09/06 11:28:17;;;;;;;3.60;2.63;;;31.20;99.90;;;;;;5002345;28;20555;-53
2023/09/06 11:30:46;;;;;;;6.03;3.60;;;30.00;99.90;;;;;;4995514;28;20460;-51
2023/09/06 11:33:13;;;;;;;11.10;3.70;;;29.30;99.90;;;;;;5008554;28;20479;-52
2023/09/06 11:35:48;;;;;;;2.50;2.30;;;29.20;99.90;;;;;;4992906;28;20550;-52
2023/09/06 11:38:16;;;;;;;4.33;2.13;;;29.00;99.90;;;;;;4990563;28;21261;-53
2023/09/06 11:40:45;;;;;;;2.77;2.37;;;29.00;99.90;;;;;;4988474;28;20841;-52
2023/09/06 11:43:13;;;;;;;2.73;2.53;;;28.50;99.90;;;;;;4991426;28;20526;-53
2023/09/06 11:45:43;;;;;;;11.33;2.30;;;28.50;99.90;;;;;;5002914;23;20989;-51
2023/09/06 11:48:10;;;;;;;3.20;2.70;;;28.30;99.90;;;;;;5003484;28;20487;-52
2023/09/06 11:50:40;;;;;;;10.30;2.67;;;28.20;99.90;;;;;;4995137;28;20468;-51
2023/09/06 11:53:09;;;;;;;2.73;2.50;;;28.30;99.90;;;;;;4992570;28;20499;-51
2023/09/06 11:55:39;;;;;;;10.93;2.50;;;28.60;99.90;;;;;;4990236;28;20859;-50
2023/09/06 11:58:10;;;;;;;2.93;2.63;;;28.80;99.90;;;;;;5000349;28;20505;-52
2023/09/06 12:00:42;;;;;;;2.47;2.33;;;29.00;99.90;;;;;;4989993;28;20465;-51
2023/09/06 12:03:14;;;;;;;3.87;2.90;;;29.50;99.90;;;;;;4990400;28;20464;-52
2023/09/06 12:05:42;;;;;;;2.77;2.57;;;29.70;99.90;;;;;;4993332;28;21011;-51
2023/09/06 12:08:13;;;;;;;3.00;2.80;;;28.60;99.90;;;;;;5005176;28;20461;-51
2023/09/06 12:10:40;;;;;;;4.43;3.03;;;28.50;99.90;;;;;;4999497;28;20461;-59
2023/09/06 12:13:07;;;;;;;7.13;2.80;;;29.20;99.90;;;;;;5007828;28;20462;-51
2023/09/06 12:15:34;;;;;;;4.63;3.23;;;29.50;99.90;;;;;;5000743;28;21186;-52
2023/09/06 12:18:03;;;;;;;7.83;4.03;;;29.10;99.90;;;;;;4999773;28;20540;-52
2023/09/06 12:20:33;;;;;;;3.00;2.80;;;28.80;99.90;;;;;;4987607;28;20497;-52
2023/09/06 12:22:59;;;;;;;2.97;2.63;;;28.90;99.90;;;;;;5003357;28;20491;-52
2023/09/06 12:25:27;;;;;;;3.33;3.07;;;29.40;99.90;;;;;;4995846;28;20578;-51
2023/09/06 12:27:54;;;;;;;3.57;3.33;;;29.50;99.90;;;;;;5006385;28;21014;-51
2023/09/06 12:30:21;;;;;;;6.00;3.07;;;29.70;99.90;;;;;;4988165;28;20823;-51
2023/09/06 12:32:48;;;;;;;3.73;3.50;;;29.90;99.90;;;;;;5001772;28;20468;-51
2023/09/06 12:35:15;;;;;;;4.00;3.30;;;30.70;99.90;;;;;;5010428;28;20533;-51
2023/09/06 12:37:41;;;;;;;3.77;3.40;;;31.60;99.90;;;;;;4997908;28;20543;-51
2023/09/06 12:40:11;;;;;;;3.80;3.30;;;31.60;99.90;;;;;;4988650;28;20565;-51
2023/09/06 12:42:46;;;;;;;3.23;3.03;;;30.80;99.90;;;;;;5000789;28;20460;-51
2023/09/06 12:45:19;;;;;;;4.80;3.00;;;31.80;99.90;;;;;;4996941;28;20585;-51
2023/09/06 12:47:45;;;;;;;5.40;3.13;;;31.20;99.90;;;;;;5019691;28;20663;-51
2023/09/06 12:50:12;;;;;;;2.60;2.37;;;30.90;99.90;;;;;;5008603;28;20578;-51
2023/09/06 12:52:38;;;;;;;2.57;2.33;;;30.90;99.90;;;;;;5014055;28;21088;-50